sensor_id;sensor_type;location;lat;lon;timestamp;P1;durP1;ratioP1;P2;durP2;ratioP2
45644;SDS011;31359;48.784;9.192;2022-07-04T00:01:10;8.43;;;4.40;;
45644;SDS011;31359;48.784;9.192;2022-07-04T00:06:12;9.85;;;4.63;;
45644;SDS011;31359;48.784;9.192;2022-07-04T00:11:14;11.00;;;4.53;;
45644;SDS011;31359;48.784;9.192;2022-07-04T00:16:16;10.00;;;4.53;;
45644;SDS011;31359;48.784;9.192;2022-07-04T00:21:17;9.13;;;4.38;;
45644;SDS011;31359;48.784;9.192;2022-07-04T00:26:19;10.45;;;4.35;;
45644;SDS011;31359;48.784;9.192;2022-07-04T00:31:21;6.93;;;4.13;;
45644;SDS011;31359;48.784;9.192;2022-07-04T00:36:23;9.07;;;4.10;;
45644;SDS011;31359;48.784;9.192;2022-07-04T00:41:24;9.43;;;3.72;;
45644;SDS011;31359;48.784;9.192;2022-07-04T00:46:27;8.98;;;4.18;;
45644;SDS011;31359;48.784;9.192;2022-07-04T00:51:29;7.32;;;4.00;;
45644;SDS011;31359;48.784;9.192;2022-07-04T00:56:31;8.15;;;3.92;;
45644;SDS011;31359;48.784;9.192;2022-07-04T01:01:36;8.07;;;3.70;;
45644;SDS011;31359;48.784;9.192;2022-07-04T01:06:38;6.93;;;3.53;;
45644;SDS011;31359;48.784;9.192;2022-07-04T01:11:40;6.20;;;3.38;;
45644;SDS011;31359;48.784;9.192;2022-07-04T01:16:42;7.30;;;3.38;;
45644;SDS011;31359;48.784;9.192;2022-07-04T01:21:43;6.25;;;3.42;;
45644;SDS011;31359;48.784;9.192;2022-07-04T01:26:45;5.78;;;3.42;;
45644;SDS011;31359;48.784;9.192;2022-07-04T01:31:47;9.02;;;3.97;;
45644;SDS011;31359;48.784;9.192;2022-07-04T01:36:50;7.35;;;3.25;;
45644;SDS011;31359;48.784;9.192;2022-07-04T01:41:51;6.40;;;3.30;;
45644;SDS011;31359;48.784;9.192;2022-07-04T01:46:53;7.32;;;3.75;;
45644;SDS011;31359;48.784;9.192;2022-07-04T01:51:55;6.18;;;3.50;;
45644;SDS011;31359;48.784;9.192;2022-07-04T01:56:57;6.45;;;3.17;;
45644;SDS011;31359;48.784;9.192;2022-07-04T02:01:59;5.20;;;3.00;;
45644;SDS011;31359;48.784;9.192;2022-07-04T02:07:01;6.15;;;3.35;;
45644;SDS011;31359;48.784;9.192;2022-07-04T02:12:02;6.70;;;3.20;;
45644;SDS011;31359;48.784;9.192;2022-07-04T02:17:23;3.08;;;2.00;;
45644;SDS011;31359;48.784;9.192;2022-07-04T02:22:25;2.90;;;2.13;;
45644;SDS011;31359;48.784;9.192;2022-07-04T02:27:28;2.95;;;1.98;;
45644;SDS011;31359;48.784;9.192;2022-07-04T02:32:29;3.00;;;2.13;;
45644;SDS011;31359;48.784;9.192;2022-07-04T02:37:31;6.90;;;2.50;;
45644;SDS011;31359;48.784;9.192;2022-07-04T02:42:33;3.90;;;2.00;;
45644;SDS011;31359;48.784;9.192;2022-07-04T02:47:36;3.97;;;1.90;;
45644;SDS011;31359;48.784;9.192;2022-07-04T02:52:37;2.30;;;1.98;;
45644;SDS011;31359;48.784;9.192;2022-07-04T02:57:39;2.47;;;1.92;;
45644;SDS011;31359;48.784;9.192;2022-07-04T03:02:41;3.53;;;1.70;;
45644;SDS011;31359;48.784;9.192;2022-07-04T03:07:43;3.47;;;2.03;;
45644;SDS011;31359;48.784;9.192;2022-07-04T03:12:44;3.28;;;1.88;;
45644;SDS011;31359;48.784;9.192;2022-07-04T03:17:46;2.67;;;1.85;;
45644;SDS011;31359;48.784;9.192;2022-07-04T03:22:48;3.60;;;2.05;;
45644;SDS011;31359;48.784;9.192;2022-07-04T03:27:49;5.32;;;1.70;;
45644;SDS011;31359;48.784;9.192;2022-07-04T03:32:51;4.03;;;1.90;;
45644;SDS011;31359;48.784;9.192;2022-07-04T03:37:53;3.75;;;1.85;;
45644;SDS011;31359;48.784;9.192;2022-07-04T03:42:55;2.90;;;2.08;;
45644;SDS011;31359;48.784;9.192;2022-07-04T03:47:57;2.35;;;1.90;;
45644;SDS011;31359;48.784;9.192;2022-07-04T03:52:58;2.03;;;1.60;;
45644;SDS011;31359;48.784;9.192;2022-07-04T03:58:00;1.98;;;1.73;;
45644;SDS011;31359;48.784;9.192;2022-07-04T04:03:02;3.03;;;1.90;;
45644;SDS011;31359;48.784;9.192;2022-07-04T04:08:24;3.30;;;1.70;;
45644;SDS011;31359;48.784;9.192;2022-07-04T04:13:25;2.97;;;1.60;;
45644;SDS011;31359;48.784;9.192;2022-07-04T04:18:27;2.42;;;1.70;;
45644;SDS011;31359;48.784;9.192;2022-07-04T04:23:29;2.15;;;1.80;;
45644;SDS011;31359;48.784;9.192;2022-07-04T04:28:30;2.80;;;1.63;;
45644;SDS011;31359;48.784;9.192;2022-07-04T04:33:33;2.45;;;1.83;;
45644;SDS011;31359;48.784;9.192;2022-07-04T04:38:36;3.28;;;1.80;;
45644;SDS011;31359;48.784;9.192;2022-07-04T04:43:37;5.05;;;2.13;;
45644;SDS011;31359;48.784;9.192;2022-07-04T04:48:39;4.55;;;1.90;;
45644;SDS011;31359;48.784;9.192;2022-07-04T04:53:41;4.45;;;1.80;;
45644;SDS011;31359;48.784;9.192;2022-07-04T04:58:42;4.88;;;1.70;;
45644;SDS011;31359;48.784;9.192;2022-07-04T05:03:44;2.50;;;1.88;;
45644;SDS011;31359;48.784;9.192;2022-07-04T05:08:46;5.63;;;1.90;;
45644;SDS011;31359;48.784;9.192;2022-07-04T05:13:48;5.63;;;2.30;;
45644;SDS011;31359;48.784;9.192;2022-07-04T05:18:49;6.88;;;2.30;;
45644;SDS011;31359;48.784;9.192;2022-07-04T05:23:52;8.95;;;2.22;;
45644;SDS011;31359;48.784;9.192;2022-07-04T05:28:54;7.85;;;2.25;;
45644;SDS011;31359;48.784;9.192;2022-07-04T05:33:57;12.00;;;2.88;;
45644;SDS011;31359;48.784;9.192;2022-07-04T05:38:59;19.10;;;3.70;;
45644;SDS011;31359;48.784;9.192;2022-07-04T05:44:00;20.08;;;4.30;;
45644;SDS011;31359;48.784;9.192;2022-07-04T05:49:02;20.80;;;4.75;;
45644;SDS011;31359;48.784;9.192;2022-07-04T05:54:04;22.15;;;6.03;;
45644;SDS011;31359;48.784;9.192;2022-07-04T05:59:05;20.45;;;4.43;;
45644;SDS011;31359;48.784;9.192;2022-07-04T06:04:07;21.35;;;4.45;;
45644;SDS011;31359;48.784;9.192;2022-07-04T06:09:09;13.57;;;3.83;;
45644;SDS011;31359;48.784;9.192;2022-07-04T06:14:17;16.08;;;3.80;;
45644;SDS011;31359;48.784;9.192;2022-07-04T06:19:18;13.63;;;3.58;;
45644;SDS011;31359;48.784;9.192;2022-07-04T06:24:20;13.60;;;3.60;;
45644;SDS011;31359;48.784;9.192;2022-07-04T06:29:22;16.42;;;3.65;;
45644;SDS011;31359;48.784;9.192;2022-07-04T06:34:24;11.18;;;3.08;;
45644;SDS011;31359;48.784;9.192;2022-07-04T06:39:45;12.18;;;3.25;;
45644;SDS011;31359;48.784;9.192;2022-07-04T06:44:47;8.57;;;3.00;;
45644;SDS011;31359;48.784;9.192;2022-07-04T06:49:48;11.52;;;3.00;;
45644;SDS011;31359;48.784;9.192;2022-07-04T06:54:50;9.05;;;3.30;;
45644;SDS011;31359;48.784;9.192;2022-07-04T06:59:52;9.07;;;2.90;;
45644;SDS011;31359;48.784;9.192;2022-07-04T07:04:54;10.00;;;3.22;;
45644;SDS011;31359;48.784;9.192;2022-07-04T07:09:57;13.43;;;3.03;;
45644;SDS011;31359;48.784;9.192;2022-07-04T07:14:59;13.48;;;3.13;;
45644;SDS011;31359;48.784;9.192;2022-07-04T07:20:02;6.97;;;3.00;;
45644;SDS011;31359;48.784;9.192;2022-07-04T07:25:04;8.90;;;2.97;;
45644;SDS011;31359;48.784;9.192;2022-07-04T07:36:29;7.50;;;2.95;;
45644;SDS011;31359;48.784;9.192;2022-07-04T07:41:30;7.75;;;3.10;;
45644;SDS011;31359;48.784;9.192;2022-07-04T07:46:32;10.43;;;2.95;;
45644;SDS011;31359;48.784;9.192;2022-07-04T07:51:34;11.20;;;3.20;;
45644;SDS011;31359;48.784;9.192;2022-07-04T07:56:36;5.50;;;2.70;;
45644;SDS011;31359;48.784;9.192;2022-07-04T08:01:38;8.65;;;2.70;;
45644;SDS011;31359;48.784;9.192;2022-07-04T08:06:40;6.43;;;2.35;;
45644;SDS011;31359;48.784;9.192;2022-07-04T08:12:03;7.32;;;3.00;;
45644;SDS011;31359;48.784;9.192;2022-07-04T08:17:05;6.55;;;2.55;;
45644;SDS011;31359;48.784;9.192;2022-07-04T08:22:07;8.25;;;2.72;;
45644;SDS011;31359;48.784;9.192;2022-07-04T08:27:16;10.95;;;2.88;;
45644;SDS011;31359;48.784;9.192;2022-07-04T08:32:17;8.68;;;2.55;;
45644;SDS011;31359;48.784;9.192;2022-07-04T08:37:19;10.50;;;2.50;;
45644;SDS011;31359;48.784;9.192;2022-07-04T08:42:21;10.07;;;2.35;;
45644;SDS011;31359;48.784;9.192;2022-07-04T08:47:24;8.23;;;2.30;;
45644;SDS011;31359;48.784;9.192;2022-07-04T08:52:35;4.55;;;2.05;;
45644;SDS011;31359;48.784;9.192;2022-07-04T08:57:38;6.38;;;2.10;;
45644;SDS011;31359;48.784;9.192;2022-07-04T09:02:59;6.00;;;1.92;;
45644;SDS011;31359;48.784;9.192;2022-07-04T09:08:03;8.98;;;2.17;;
45644;SDS011;31359;48.784;9.192;2022-07-04T09:13:08;6.28;;;1.95;;
45644;SDS011;31359;48.784;9.192;2022-07-04T09:23:44;6.35;;;2.03;;
45644;SDS011;31359;48.784;9.192;2022-07-04T09:28:52;4.25;;;1.98;;
45644;SDS011;31359;48.784;9.192;2022-07-04T09:33:58;6.40;;;2.00;;
45644;SDS011;31359;48.784;9.192;2022-07-04T09:39:05;4.90;;;1.83;;
45644;SDS011;31359;48.784;9.192;2022-07-04T09:44:16;7.03;;;2.58;;
45644;SDS011;31359;48.784;9.192;2022-07-04T09:49:19;5.07;;;2.13;;
45644;SDS011;31359;48.784;9.192;2022-07-04T09:54:28;3.00;;;1.98;;
45644;SDS011;31359;48.784;9.192;2022-07-04T09:59:33;5.90;;;2.45;;
45644;SDS011;31359;48.784;9.192;2022-07-04T10:04:42;5.78;;;2.10;;
45644;SDS011;31359;48.784;9.192;2022-07-04T10:09:44;3.20;;;1.80;;
45644;SDS011;31359;48.784;9.192;2022-07-04T10:14:46;6.35;;;2.30;;
45644;SDS011;31359;48.784;9.192;2022-07-04T10:19:48;22.38;;;3.45;;
45644;SDS011;31359;48.784;9.192;2022-07-04T10:24:53;9.48;;;2.25;;
45644;SDS011;31359;48.784;9.192;2022-07-04T10:29:54;3.03;;;2.08;;
45644;SDS011;31359;48.784;9.192;2022-07-04T10:34:57;3.80;;;2.30;;
45644;SDS011;31359;48.784;9.192;2022-07-04T10:39:59;4.50;;;2.17;;
45644;SDS011;31359;48.784;9.192;2022-07-04T10:45:01;5.75;;;2.13;;
45644;SDS011;31359;48.784;9.192;2022-07-04T10:50:03;4.47;;;2.10;;
45644;SDS011;31359;48.784;9.192;2022-07-04T10:55:10;4.45;;;2.35;;
45644;SDS011;31359;48.784;9.192;2022-07-04T11:00:12;5.63;;;2.20;;
45644;SDS011;31359;48.784;9.192;2022-07-04T11:05:14;3.95;;;1.92;;
45644;SDS011;31359;48.784;9.192;2022-07-04T11:20:33;4.13;;;2.08;;
45644;SDS011;31359;48.784;9.192;2022-07-04T11:25:38;5.15;;;2.10;;
45644;SDS011;31359;48.784;9.192;2022-07-04T11:30:47;5.93;;;2.10;;
45644;SDS011;31359;48.784;9.192;2022-07-04T11:36:05;3.92;;;2.00;;
45644;SDS011;31359;48.784;9.192;2022-07-04T11:41:17;3.45;;;2.17;;
45644;SDS011;31359;48.784;9.192;2022-07-04T11:46:38;3.63;;;2.03;;
45644;SDS011;31359;48.784;9.192;2022-07-04T11:51:43;4.20;;;2.20;;
45644;SDS011;31359;48.784;9.192;2022-07-04T11:56:48;3.13;;;2.00;;
45644;SDS011;31359;48.784;9.192;2022-07-04T12:01:49;3.85;;;1.88;;
45644;SDS011;31359;48.784;9.192;2022-07-04T12:06:51;6.28;;;2.10;;
45644;SDS011;31359;48.784;9.192;2022-07-04T12:11:57;7.60;;;2.20;;
45644;SDS011;31359;48.784;9.192;2022-07-04T12:22:12;5.47;;;2.47;;
45644;SDS011;31359;48.784;9.192;2022-07-04T12:27:17;6.88;;;2.40;;
45644;SDS011;31359;48.784;9.192;2022-07-04T12:32:20;7.43;;;2.90;;
45644;SDS011;31359;48.784;9.192;2022-07-04T12:37:22;8.85;;;2.33;;
45644;SDS011;31359;48.784;9.192;2022-07-04T12:42:24;5.30;;;2.50;;
45644;SDS011;31359;48.784;9.192;2022-07-04T12:47:33;5.03;;;2.40;;
45644;SDS011;31359;48.784;9.192;2022-07-04T12:52:45;6.38;;;2.28;;
45644;SDS011;31359;48.784;9.192;2022-07-04T12:57:47;7.18;;;2.22;;
45644;SDS011;31359;48.784;9.192;2022-07-04T13:02:49;3.15;;;1.95;;
45644;SDS011;31359;48.784;9.192;2022-07-04T13:07:52;2.63;;;2.05;;
45644;SDS011;31359;48.784;9.192;2022-07-04T13:12:54;5.28;;;2.50;;
45644;SDS011;31359;48.784;9.192;2022-07-04T13:17:56;5.03;;;2.05;;
45644;SDS011;31359;48.784;9.192;2022-07-04T13:22:58;3.80;;;2.28;;
45644;SDS011;31359;48.784;9.192;2022-07-04T13:27:59;3.22;;;2.00;;
45644;SDS011;31359;48.784;9.192;2022-07-04T13:33:01;4.13;;;2.00;;
45644;SDS011;31359;48.784;9.192;2022-07-04T13:38:03;6.97;;;2.08;;
45644;SDS011;31359;48.784;9.192;2022-07-04T13:43:05;3.90;;;2.13;;
45644;SDS011;31359;48.784;9.192;2022-07-04T13:48:12;2.38;;;1.88;;
45644;SDS011;31359;48.784;9.192;2022-07-04T13:53:14;2.58;;;1.80;;
45644;SDS011;31359;48.784;9.192;2022-07-04T13:58:15;4.65;;;1.90;;
45644;SDS011;31359;48.784;9.192;2022-07-04T14:03:17;2.70;;;1.70;;
45644;SDS011;31359;48.784;9.192;2022-07-04T14:08:19;3.33;;;1.80;;
45644;SDS011;31359;48.784;9.192;2022-07-04T14:13:21;4.00;;;1.75;;
45644;SDS011;31359;48.784;9.192;2022-07-04T14:18:22;2.50;;;1.73;;
45644;SDS011;31359;48.784;9.192;2022-07-04T14:23:24;4.13;;;2.25;;
45644;SDS011;31359;48.784;9.192;2022-07-04T14:28:41;2.22;;;1.70;;
45644;SDS011;31359;48.784;9.192;2022-07-04T14:33:47;2.20;;;1.77;;
45644;SDS011;31359;48.784;9.192;2022-07-04T14:38:49;5.13;;;2.10;;
45644;SDS011;31359;48.784;9.192;2022-07-04T14:43:51;2.45;;;2.03;;
45644;SDS011;31359;48.784;9.192;2022-07-04T14:48:56;3.13;;;1.90;;
45644;SDS011;31359;48.784;9.192;2022-07-04T14:53:58;3.17;;;1.83;;
45644;SDS011;31359;48.784;9.192;2022-07-04T14:59:01;6.78;;;2.47;;
45644;SDS011;31359;48.784;9.192;2022-07-04T15:04:03;7.05;;;2.47;;
45644;SDS011;31359;48.784;9.192;2022-07-04T15:09:05;7.28;;;2.45;;
45644;SDS011;31359;48.784;9.192;2022-07-04T15:14:07;7.30;;;1.95;;
45644;SDS011;31359;48.784;9.192;2022-07-04T15:19:09;4.93;;;2.20;;
45644;SDS011;31359;48.784;9.192;2022-07-04T15:24:11;11.60;;;2.47;;
45644;SDS011;31359;48.784;9.192;2022-07-04T15:29:14;3.35;;;2.00;;
45644;SDS011;31359;48.784;9.192;2022-07-04T15:34:16;9.10;;;2.13;;
45644;SDS011;31359;48.784;9.192;2022-07-04T15:39:18;11.40;;;2.60;;
45644;SDS011;31359;48.784;9.192;2022-07-04T15:44:20;8.65;;;2.30;;
45644;SDS011;31359;48.784;9.192;2022-07-04T15:49:22;6.45;;;2.35;;
45644;SDS011;31359;48.784;9.192;2022-07-04T15:54:24;7.47;;;2.35;;
45644;SDS011;31359;48.784;9.192;2022-07-04T15:59:26;5.63;;;2.25;;
45644;SDS011;31359;48.784;9.192;2022-07-04T16:04:28;5.07;;;2.05;;
45644;SDS011;31359;48.784;9.192;2022-07-04T16:09:30;5.65;;;2.55;;
45644;SDS011;31359;48.784;9.192;2022-07-04T16:14:32;7.78;;;2.30;;
45644;SDS011;31359;48.784;9.192;2022-07-04T16:19:33;6.38;;;2.42;;
45644;SDS011;31359;48.784;9.192;2022-07-04T16:24:35;8.80;;;2.50;;
45644;SDS011;31359;48.784;9.192;2022-07-04T16:29:37;6.63;;;2.53;;
45644;SDS011;31359;48.784;9.192;2022-07-04T16:34:38;6.82;;;2.20;;
45644;SDS011;31359;48.784;9.192;2022-07-04T16:39:40;6.57;;;2.45;;
45644;SDS011;31359;48.784;9.192;2022-07-04T16:44:42;5.45;;;2.15;;
45644;SDS011;31359;48.784;9.192;2022-07-04T16:49:44;7.30;;;2.53;;
45644;SDS011;31359;48.784;9.192;2022-07-04T16:54:46;9.05;;;2.30;;
45644;SDS011;31359;48.784;9.192;2022-07-04T16:59:48;7.65;;;2.38;;
45644;SDS011;31359;48.784;9.192;2022-07-04T17:04:49;6.13;;;2.25;;
45644;SDS011;31359;48.784;9.192;2022-07-04T17:09:51;6.30;;;2.25;;
45644;SDS011;31359;48.784;9.192;2022-07-04T17:14:53;6.60;;;2.50;;
45644;SDS011;31359;48.784;9.192;2022-07-04T17:19:55;7.70;;;2.78;;
45644;SDS011;31359;48.784;9.192;2022-07-04T17:24:57;8.63;;;2.63;;
45644;SDS011;31359;48.784;9.192;2022-07-04T17:29:59;6.22;;;2.88;;
45644;SDS011;31359;48.784;9.192;2022-07-04T17:35:01;10.45;;;2.63;;
45644;SDS011;31359;48.784;9.192;2022-07-04T17:40:03;12.68;;;2.35;;
45644;SDS011;31359;48.784;9.192;2022-07-04T17:45:06;16.85;;;2.40;;
45644;SDS011;31359;48.784;9.192;2022-07-04T17:50:08;7.43;;;2.38;;
45644;SDS011;31359;48.784;9.192;2022-07-04T17:55:11;4.93;;;2.00;;
45644;SDS011;31359;48.784;9.192;2022-07-04T18:00:15;8.20;;;2.15;;
45644;SDS011;31359;48.784;9.192;2022-07-04T18:05:16;5.57;;;2.10;;
45644;SDS011;31359;48.784;9.192;2022-07-04T18:10:18;5.65;;;2.22;;
45644;SDS011;31359;48.784;9.192;2022-07-04T18:15:20;5.60;;;2.10;;
45644;SDS011;31359;48.784;9.192;2022-07-04T18:20:22;4.15;;;2.22;;
45644;SDS011;31359;48.784;9.192;2022-07-04T18:25:24;8.35;;;2.47;;
45644;SDS011;31359;48.784;9.192;2022-07-04T18:30:28;9.57;;;2.60;;
45644;SDS011;31359;48.784;9.192;2022-07-04T18:35:34;7.28;;;2.10;;
45644;SDS011;31359;48.784;9.192;2022-07-04T18:40:41;8.23;;;2.60;;
45644;SDS011;31359;48.784;9.192;2022-07-04T18:46:02;3.65;;;2.20;;
45644;SDS011;31359;48.784;9.192;2022-07-04T18:51:04;3.65;;;2.17;;
45644;SDS011;31359;48.784;9.192;2022-07-04T18:56:06;6.50;;;2.17;;
45644;SDS011;31359;48.784;9.192;2022-07-04T19:01:08;2.88;;;2.08;;
45644;SDS011;31359;48.784;9.192;2022-07-04T19:06:11;6.18;;;2.00;;
45644;SDS011;31359;48.784;9.192;2022-07-04T19:11:12;6.97;;;2.13;;
45644;SDS011;31359;48.784;9.192;2022-07-04T19:16:14;4.00;;;2.20;;
45644;SDS011;31359;48.784;9.192;2022-07-04T19:21:22;4.10;;;1.90;;
45644;SDS011;31359;48.784;9.192;2022-07-04T19:26:25;5.88;;;2.22;;
45644;SDS011;31359;48.784;9.192;2022-07-04T19:31:27;5.53;;;2.20;;
45644;SDS011;31359;48.784;9.192;2022-07-04T19:36:30;6.15;;;2.20;;
45644;SDS011;31359;48.784;9.192;2022-07-04T19:41:32;3.72;;;2.03;;
45644;SDS011;31359;48.784;9.192;2022-07-04T19:46:34;2.78;;;2.05;;
45644;SDS011;31359;48.784;9.192;2022-07-04T19:51:37;3.55;;;1.88;;
45644;SDS011;31359;48.784;9.192;2022-07-04T19:56:39;4.50;;;1.92;;
45644;SDS011;31359;48.784;9.192;2022-07-04T20:01:41;4.93;;;2.55;;
45644;SDS011;31359;48.784;9.192;2022-07-04T20:06:43;2.20;;;1.88;;
45644;SDS011;31359;48.784;9.192;2022-07-04T20:11:44;3.85;;;2.13;;
45644;SDS011;31359;48.784;9.192;2022-07-04T20:16:46;5.90;;;2.10;;
45644;SDS011;31359;48.784;9.192;2022-07-04T20:21:48;5.13;;;2.10;;
45644;SDS011;31359;48.784;9.192;2022-07-04T20:26:51;6.05;;;1.60;;
45644;SDS011;31359;48.784;9.192;2022-07-04T20:32:12;4.35;;;1.92;;
45644;SDS011;31359;48.784;9.192;2022-07-04T20:37:15;4.28;;;1.95;;
45644;SDS011;31359;48.784;9.192;2022-07-04T20:42:17;4.40;;;1.95;;
45644;SDS011;31359;48.784;9.192;2022-07-04T20:47:19;8.98;;;2.50;;
45644;SDS011;31359;48.784;9.192;2022-07-04T20:52:22;7.47;;;2.83;;
45644;SDS011;31359;48.784;9.192;2022-07-04T20:57:24;8.57;;;3.80;;
45644;SDS011;31359;48.784;9.192;2022-07-04T21:02:25;12.88;;;4.05;;
45644;SDS011;31359;48.784;9.192;2022-07-04T21:07:28;9.65;;;3.63;;
45644;SDS011;31359;48.784;9.192;2022-07-04T21:12:30;10.15;;;3.10;;
45644;SDS011;31359;48.784;9.192;2022-07-04T21:17:31;8.40;;;3.70;;
45644;SDS011;31359;48.784;9.192;2022-07-04T21:22:34;5.05;;;2.90;;
45644;SDS011;31359;48.784;9.192;2022-07-04T21:27:36;7.60;;;3.28;;
45644;SDS011;31359;48.784;9.192;2022-07-04T21:32:37;8.07;;;3.97;;
45644;SDS011;31359;48.784;9.192;2022-07-04T21:37:39;10.82;;;3.63;;
45644;SDS011;31359;48.784;9.192;2022-07-04T21:42:41;6.03;;;3.10;;
45644;SDS011;31359;48.784;9.192;2022-07-04T21:47:43;7.25;;;3.13;;
45644;SDS011;31359;48.784;9.192;2022-07-04T21:52:44;6.25;;;3.00;;
45644;SDS011;31359;48.784;9.192;2022-07-04T21:57:46;7.72;;;3.30;;
45644;SDS011;31359;48.784;9.192;2022-07-04T22:02:48;4.93;;;2.97;;
45644;SDS011;31359;48.784;9.192;2022-07-04T22:07:50;6.07;;;3.17;;
45644;SDS011;31359;48.784;9.192;2022-07-04T22:12:55;7.85;;;3.35;;
45644;SDS011;31359;48.784;9.192;2022-07-04T22:17:58;4.57;;;2.95;;
45644;SDS011;31359;48.784;9.192;2022-07-04T22:23:00;6.13;;;3.15;;
45644;SDS011;31359;48.784;9.192;2022-07-04T22:28:01;4.22;;;2.83;;
45644;SDS011;31359;48.784;9.192;2022-07-04T22:33:03;4.85;;;2.50;;
45644;SDS011;31359;48.784;9.192;2022-07-04T22:38:05;5.63;;;2.78;;
45644;SDS011;31359;48.784;9.192;2022-07-04T22:43:07;7.10;;;2.95;;
45644;SDS011;31359;48.784;9.192;2022-07-04T22:48:09;5.97;;;2.80;;
45644;SDS011;31359;48.784;9.192;2022-07-04T22:53:11;4.45;;;2.50;;
45644;SDS011;31359;48.784;9.192;2022-07-04T22:58:32;5.25;;;2.58;;
45644;SDS011;31359;48.784;9.192;2022-07-04T23:03:34;2.75;;;2.33;;
45644;SDS011;31359;48.784;9.192;2022-07-04T23:08:36;3.30;;;2.55;;
45644;SDS011;31359;48.784;9.192;2022-07-04T23:13:38;4.47;;;2.88;;
45644;SDS011;31359;48.784;9.192;2022-07-04T23:18:40;4.07;;;2.78;;
45644;SDS011;31359;48.784;9.192;2022-07-04T23:23:42;4.63;;;2.42;;
45644;SDS011;31359;48.784;9.192;2022-07-04T23:28:43;2.45;;;2.25;;
45644;SDS011;31359;48.784;9.192;2022-07-04T23:33:45;7.32;;;2.40;;
45644;SDS011;31359;48.784;9.192;2022-07-04T23:38:47;3.83;;;2.25;;
45644;SDS011;31359;48.784;9.192;2022-07-04T23:43:49;4.00;;;2.47;;
45644;SDS011;31359;48.784;9.192;2022-07-04T23:48:50;2.90;;;2.10;;
45644;SDS011;31359;48.784;9.192;2022-07-04T23:53:52;4.10;;;2.45;;
45644;SDS011;31359;48.784;9.192;2022-07-04T23:58:54;3.10;;;2.45;;
